Heat Index [SAI AWOS/ASOS Display]_________FAA Disclaimer: "Not for use in aviation at this time______________" Untitled Document
Indianapolis Executive Airport IN
320
00:16
18/09/22
08
15
N/A
30.08
N/A
922
70(F), 21(C)
55(F), 13(C)
71 F
60%
CLR
10
N/A
N/A
N/A
00:16 zulu Wind 320 at 08 Knots, Gusting 15 Knots, Altimeter 30.08
METAR KTYQ 220016Z AUTO 32008G15KT 10SM CLR 21/13 A3008 A02
METAR:
FAA Disclaimer--Advisory Use ONLY, not for flight info-- 2/21/2009: Airport FBO 317-769-3288... New URL for smartphones... http://www.saiawos2.com/TYQ
INFO:
Wind Direction:
Wind Speed:
Wind Gust:
Wind Variable:
Altimeter:
Dens Alt:
Elev:
Temp:
Dwpt:
Wind Chill
Rel Humidity:
Ceiling:
Visibility:
Prsnt Wea:
PCPN:
Remarks:
How to read the WebPage